sensor_id;sensor_type;location;lat;lon;timestamp;temperature;humidity
9875;DHT22;4976;46.786;7.632;2023-02-12T05:01:34;-2.50;1.00
9875;DHT22;4976;46.786;7.632;2023-02-12T05:04:03;-2.60;1.00
9875;DHT22;4976;46.786;7.632;2023-02-12T05:06:33;-2.60;1.00
9875;DHT22;4976;46.786;7.632;2023-02-12T05:09:01;-2.60;1.00
9875;DHT22;4976;46.786;7.632;2023-02-12T05:11:31;-2.60;1.00
9875;DHT22;4976;46.786;7.632;2023-02-12T05:13:59;-2.50;1.00
9875;DHT22;4976;46.786;7.632;2023-02-12T05:16:26;-2.40;1.00
9875;DHT22;4976;46.786;7.632;2023-02-12T05:18:57;-2.60;1.00
9875;DHT22;4976;46.786;7.632;2023-02-12T05:21:24;-2.70;1.00
9875;DHT22;4976;46.786;7.632;2023-02-12T05:23:51;-2.70;1.00
9875;DHT22;4976;46.786;7.632;2023-02-12T05:26:20;-2.70;1.00
9875;DHT22;4976;46.786;7.632;2023-02-12T05:28:48;-2.80;1.00
9875;DHT22;4976;46.786;7.632;2023-02-12T05:31:17;-2.70;1.00
9875;DHT22;4976;46.786;7.632;2023-02-12T05:33:45;-2.70;1.00
9875;DHT22;4976;46.786;7.632;2023-02-12T05:36:17;-2.70;1.00
9875;DHT22;4976;46.786;7.632;2023-02-12T05:38:45;-2.80;1.00
9875;DHT22;4976;46.786;7.632;2023-02-12T05:41:14;-2.90;1.00
9875;DHT22;4976;46.786;7.632;2023-02-12T05:43:43;-2.90;1.00
9875;DHT22;4976;46.786;7.632;2023-02-12T05:46:13;-3.00;1.00
9875;DHT22;4976;46.786;7.632;2023-02-12T05:48:41;-3.00;1.00
9875;DHT22;4976;46.786;7.632;2023-02-12T05:51:10;-2.70;1.00
9875;DHT22;4976;46.786;7.632;2023-02-12T05:53:40;-2.60;1.00
9875;DHT22;4976;46.786;7.632;2023-02-12T05:56:09;-2.60;1.00
9875;DHT22;4976;46.786;7.632;2023-02-12T05:58:37;-2.70;1.00
9875;DHT22;4976;46.786;7.632;2023-02-12T06:01:09;-2.70;1.00
9875;DHT22;4976;46.786;7.632;2023-02-12T06:03:36;-2.80;1.00
9875;DHT22;4976;46.786;7.632;2023-02-12T06:06:04;-2.80;1.00
9875;DHT22;4976;46.786;7.632;2023-02-12T06:08:37;-2.90;1.00
9875;DHT22;4976;46.786;7.632;2023-02-12T06:11:11;-2.90;1.00
9875;DHT22;4976;46.786;7.632;2023-02-12T06:13:39;-2.80;11.40
9875;DHT22;4976;46.786;7.632;2023-02-12T06:16:14;-2.70;22.70
9875;DHT22;4976;46.786;7.632;2023-02-12T06:18:42;-2.50;21.00
9875;DHT22;4976;46.786;7.632;2023-02-12T06:21:09;-2.50;13.90
9875;DHT22;4976;46.786;7.632;2023-02-12T06:23:38;-2.50;8.90
9875;DHT22;4976;46.786;7.632;2023-02-12T06:26:07;-2.60;1.60
9875;DHT22;4976;46.786;7.632;2023-02-12T06:28:34;-2.80;1.00
9875;DHT22;4976;46.786;7.632;2023-02-12T06:31:04;-2.80;3.40
9875;DHT22;4976;46.786;7.632;2023-02-12T06:33:35;-2.80;18.40
9875;DHT22;4976;46.786;7.632;2023-02-12T06:36:03;-2.70;30.90
9875;DHT22;4976;46.786;7.632;2023-02-12T06:38:32;-2.50;39.20
9875;DHT22;4976;46.786;7.632;2023-02-12T06:41:01;-2.40;44.90
9875;DHT22;4976;46.786;7.632;2023-02-12T06:43:30;-2.50;30.40
9875;DHT22;4976;46.786;7.632;2023-02-12T06:46:00;-2.60;11.00
9875;DHT22;4976;46.786;7.632;2023-02-12T06:48:28;-2.60;2.70
9875;DHT22;4976;46.786;7.632;2023-02-12T06:51:01;-2.50;10.80
9875;DHT22;4976;46.786;7.632;2023-02-12T06:53:29;-2.40;11.90
9875;DHT22;4976;46.786;7.632;2023-02-12T06:55:56;-2.40;4.60
9875;DHT22;4976;46.786;7.632;2023-02-12T06:58:23;-2.40;4.90
9875;DHT22;4976;46.786;7.632;2023-02-12T07:00:54;-2.20;10.80
9875;DHT22;4976;46.786;7.632;2023-02-12T07:03:22;-2.20;2.40
9875;DHT22;4976;46.786;7.632;2023-02-12T07:05:49;-2.20;1.00
9875;DHT22;4976;46.786;7.632;2023-02-12T07:08:17;-2.20;1.00
9875;DHT22;4976;46.786;7.632;2023-02-12T07:10:47;-2.10;1.00
9875;DHT22;4976;46.786;7.632;2023-02-12T07:13:16;-2.00;1.00
9875;DHT22;4976;46.786;7.632;2023-02-12T07:15:43;-2.10;1.00
9875;DHT22;4976;46.786;7.632;2023-02-12T07:18:16;-2.10;1.00
9875;DHT22;4976;46.786;7.632;2023-02-12T07:20:58;-2.10;1.00
9875;DHT22;4976;46.786;7.632;2023-02-12T07:23:32;-2.10;1.00
9875;DHT22;4976;46.786;7.632;2023-02-12T07:26:09;-2.10;1.00
9875;DHT22;4976;46.786;7.632;2023-02-12T07:28:48;-2.00;1.00
9875;DHT22;4976;46.786;7.632;2023-02-12T07:31:28;-1.80;1.00
9875;DHT22;4976;46.786;7.632;2023-02-12T07:34:12;-1.50;1.00
9875;DHT22;4976;46.786;7.632;2023-02-12T07:36:55;-1.10;1.00
9875;DHT22;4976;46.786;7.632;2023-02-12T07:39:26;-0.80;1.00
9875;DHT22;4976;46.786;7.632;2023-02-12T07:41:55;-0.70;1.00
9875;DHT22;4976;46.786;7.632;2023-02-12T07:44:23;-0.50;1.00
9875;DHT22;4976;46.786;7.632;2023-02-12T07:46:51;-0.40;1.00
9875;DHT22;4976;46.786;7.632;2023-02-12T07:49:21;-0.20;99.90
9875;DHT22;4976;46.786;7.632;2023-02-12T07:51:54;0.10;99.90
9875;DHT22;4976;46.786;7.632;2023-02-12T07:54:23;0.30;1.00
9875;DHT22;4976;46.786;7.632;2023-02-12T07:56:51;0.50;1.00
9875;DHT22;4976;46.786;7.632;2023-02-12T07:59:20;0.50;38.10
9875;DHT22;4976;46.786;7.632;2023-02-12T08:01:53;0.50;99.90
9875;DHT22;4976;46.786;7.632;2023-02-12T08:04:23;0.60;1.00
9875;DHT22;4976;46.786;7.632;2023-02-12T08:06:53;0.80;1.00
9875;DHT22;4976;46.786;7.632;2023-02-12T08:09:22;0.90;1.00
9875;DHT22;4976;46.786;7.632;2023-02-12T08:11:51;1.00;99.90
9875;DHT22;4976;46.786;7.632;2023-02-12T08:14:20;1.10;1.00
9875;DHT22;4976;46.786;7.632;2023-02-12T08:16:48;1.10;1.00
9875;DHT22;4976;46.786;7.632;2023-02-12T08:19:16;1.10;1.00
9875;DHT22;4976;46.786;7.632;2023-02-12T08:21:45;1.30;1.00
9875;DHT22;4976;46.786;7.632;2023-02-12T08:24:17;1.30;99.90
9875;DHT22;4976;46.786;7.632;2023-02-12T08:26:49;1.20;99.90
9875;DHT22;4976;46.786;7.632;2023-02-12T08:29:28;1.10;1.00
9875;DHT22;4976;46.786;7.632;2023-02-12T08:32:02;1.00;99.90
9875;DHT22;4976;46.786;7.632;2023-02-12T08:34:40;1.00;99.90
9875;DHT22;4976;46.786;7.632;2023-02-12T08:37:49;1.00;99.90
9875;DHT22;4976;46.786;7.632;2023-02-12T08:47:40;0.90;99.90
9875;DHT22;4976;46.786;7.632;2023-02-12T08:51:01;0.90;1.00
9875;DHT22;4976;46.786;7.632;2023-02-12T08:57:42;1.10;1.00
9875;DHT22;4976;46.786;7.632;2023-02-12T09:00:37;1.30;99.90
9875;DHT22;4976;46.786;7.632;2023-02-12T09:03:48;1.50;43.40
9875;DHT22;4976;46.786;7.632;2023-02-12T09:06:59;1.70;1.00
9875;DHT22;4976;46.786;7.632;2023-02-12T09:10:01;1.80;99.90
9875;DHT22;4976;46.786;7.632;2023-02-12T09:13:01;1.80;99.90
9875;DHT22;4976;46.786;7.632;2023-02-12T09:16:04;2.10;1.00
9875;DHT22;4976;46.786;7.632;2023-02-12T09:19:14;2.30;1.00
9875;DHT22;4976;46.786;7.632;2023-02-12T09:22:29;2.40;1.00
9875;DHT22;4976;46.786;7.632;2023-02-12T09:25:32;2.40;99.90
9875;DHT22;4976;46.786;7.632;2023-02-12T09:32:15;2.40;99.90
9875;DHT22;4976;46.786;7.632;2023-02-12T09:35:25;2.40;99.90
9875;DHT22;4976;46.786;7.632;2023-02-12T09:53:44;3.20;1.00
9875;DHT22;4976;46.786;7.632;2023-02-12T10:28:37;5.20;1.00
9875;DHT22;4976;46.786;7.632;2023-02-12T10:34:37;5.10;1.00
9875;DHT22;4976;46.786;7.632;2023-02-12T10:37:29;5.10;1.00
9875;DHT22;4976;46.786;7.632;2023-02-12T10:40:13;5.30;1.00
9875;DHT22;4976;46.786;7.632;2023-02-12T10:42:44;5.50;1.00
9875;DHT22;4976;46.786;7.632;2023-02-12T10:45:29;5.50;1.00
9875;DHT22;4976;46.786;7.632;2023-02-12T10:48:18;5.70;1.00
9875;DHT22;4976;46.786;7.632;2023-02-12T10:51:18;5.70;1.00
9875;DHT22;4976;46.786;7.632;2023-02-12T10:57:28;6.00;1.00
9875;DHT22;4976;46.786;7.632;2023-02-12T11:00:13;6.00;1.00
9875;DHT22;4976;46.786;7.632;2023-02-12T11:03:05;6.20;1.00
9875;DHT22;4976;46.786;7.632;2023-02-12T11:05:34;6.30;1.00
9875;DHT22;4976;46.786;7.632;2023-02-12T11:08:05;6.30;1.00
9875;DHT22;4976;46.786;7.632;2023-02-12T11:10:37;6.30;1.00
9875;DHT22;4976;46.786;7.632;2023-02-12T11:13:05;6.40;1.00
9875;DHT22;4976;46.786;7.632;2023-02-12T11:15:48;6.40;1.00
9875;DHT22;4976;46.786;7.632;2023-02-12T11:18:22;6.40;1.00
9875;DHT22;4976;46.786;7.632;2023-02-12T11:20:52;6.50;1.00
9875;DHT22;4976;46.786;7.632;2023-02-12T11:23:25;6.60;1.00
9875;DHT22;4976;46.786;7.632;2023-02-12T11:26:01;6.40;1.00
9875;DHT22;4976;46.786;7.632;2023-02-12T11:28:32;6.40;1.00
9875;DHT22;4976;46.786;7.632;2023-02-12T11:31:30;6.40;1.00
9875;DHT22;4976;46.786;7.632;2023-02-12T11:34:15;6.60;1.00
9875;DHT22;4976;46.786;7.632;2023-02-12T11:36:59;6.80;1.00
9875;DHT22;4976;46.786;7.632;2023-02-12T11:39:32;6.70;1.00
9875;DHT22;4976;46.786;7.632;2023-02-12T11:42:05;6.70;1.00
9875;DHT22;4976;46.786;7.632;2023-02-12T11:44:42;6.80;1.00
9875;DHT22;4976;46.786;7.632;2023-02-12T11:47:16;7.00;1.00
9875;DHT22;4976;46.786;7.632;2023-02-12T11:49:53;7.10;1.00
9875;DHT22;4976;46.786;7.632;2023-02-12T11:52:23;7.20;1.00
9875;DHT22;4976;46.786;7.632;2023-02-12T11:54:55;7.30;1.00
9875;DHT22;4976;46.786;7.632;2023-02-12T11:57:35;7.40;1.00
9875;DHT22;4976;46.786;7.632;2023-02-12T12:00:05;7.50;1.00
9875;DHT22;4976;46.786;7.632;2023-02-12T12:02:39;7.60;1.00
9875;DHT22;4976;46.786;7.632;2023-02-12T12:05:13;7.70;1.00
9875;DHT22;4976;46.786;7.632;2023-02-12T12:07:47;7.80;1.00
9875;DHT22;4976;46.786;7.632;2023-02-12T12:10:20;7.60;1.00
9875;DHT22;4976;46.786;7.632;2023-02-12T12:12:55;7.60;1.00
9875;DHT22;4976;46.786;7.632;2023-02-12T12:15:26;7.50;1.00
9875;DHT22;4976;46.786;7.632;2023-02-12T12:18:19;7.50;1.00
9875;DHT22;4976;46.786;7.632;2023-02-12T12:21:14;7.60;1.00
9875;DHT22;4976;46.786;7.632;2023-02-12T12:23:46;7.70;1.00
9875;DHT22;4976;46.786;7.632;2023-02-12T12:26:21;7.80;1.00
9875;DHT22;4976;46.786;7.632;2023-02-12T12:28:54;7.60;1.00
9875;DHT22;4976;46.786;7.632;2023-02-12T12:31:27;7.40;1.00
9875;DHT22;4976;46.786;7.632;2023-02-12T12:33:59;7.40;1.00
9875;DHT22;4976;46.786;7.632;2023-02-12T12:39:39;7.40;1.00
9875;DHT22;4976;46.786;7.632;2023-02-12T12:42:26;7.50;1.00
9875;DHT22;4976;46.786;7.632;2023-02-12T12:45:15;7.60;1.00
9875;DHT22;4976;46.786;7.632;2023-02-12T12:47:59;7.80;1.00
9875;DHT22;4976;46.786;7.632;2023-02-12T12:50:45;7.70;1.00
9875;DHT22;4976;46.786;7.632;2023-02-12T12:53:33;7.70;1.00
9875;DHT22;4976;46.786;7.632;2023-02-12T12:56:18;7.70;1.00
9875;DHT22;4976;46.786;7.632;2023-02-12T12:59:08;7.60;1.00
9875;DHT22;4976;46.786;7.632;2023-02-12T13:05:09;7.60;1.00
9875;DHT22;4976;46.786;7.632;2023-02-12T13:07:55;7.60;1.00
9875;DHT22;4976;46.786;7.632;2023-02-12T13:10:33;7.60;1.00
9875;DHT22;4976;46.786;7.632;2023-02-12T13:13:18;7.50;1.00
9875;DHT22;4976;46.786;7.632;2023-02-12T13:15:53;7.60;1.00
9875;DHT22;4976;46.786;7.632;2023-02-12T13:18:35;7.80;1.00
9875;DHT22;4976;46.786;7.632;2023-02-12T13:21:11;7.90;1.00
9875;DHT22;4976;46.786;7.632;2023-02-12T13:23:44;7.90;1.00
9875;DHT22;4976;46.786;7.632;2023-02-12T13:26:23;8.10;1.00
9875;DHT22;4976;46.786;7.632;2023-02-12T13:29:00;8.10;1.00
9875;DHT22;4976;46.786;7.632;2023-02-12T13:31:43;8.00;1.00
9875;DHT22;4976;46.786;7.632;2023-02-12T13:34:13;8.00;1.00
9875;DHT22;4976;46.786;7.632;2023-02-12T13:36:42;8.10;1.00
9875;DHT22;4976;46.786;7.632;2023-02-12T13:39:18;8.10;1.00
9875;DHT22;4976;46.786;7.632;2023-02-12T13:42:03;8.10;1.00
9875;DHT22;4976;46.786;7.632;2023-02-12T13:44:45;8.10;1.00
9875;DHT22;4976;46.786;7.632;2023-02-12T13:47:24;8.00;1.00
9875;DHT22;4976;46.786;7.632;2023-02-12T13:49:58;7.80;1.00
9875;DHT22;4976;46.786;7.632;2023-02-12T13:52:34;7.90;1.00
9875;DHT22;4976;46.786;7.632;2023-02-12T13:55:22;8.00;1.00
9875;DHT22;4976;46.786;7.632;2023-02-12T14:00:59;8.10;1.00
9875;DHT22;4976;46.786;7.632;2023-02-12T14:03:28;8.20;1.00
9875;DHT22;4976;46.786;7.632;2023-02-12T14:06:10;8.10;1.00
9875;DHT22;4976;46.786;7.632;2023-02-12T14:08:42;8.20;1.00
9875;DHT22;4976;46.786;7.632;2023-02-12T14:11:11;8.20;1.00
9875;DHT22;4976;46.786;7.632;2023-02-12T14:13:48;8.30;1.00
9875;DHT22;4976;46.786;7.632;2023-02-12T14:16:39;8.30;1.00
9875;DHT22;4976;46.786;7.632;2023-02-12T14:28:22;8.30;1.00
9875;DHT22;4976;46.786;7.632;2023-02-12T14:31:32;8.20;1.00
9875;DHT22;4976;46.786;7.632;2023-02-12T14:37:11;8.40;1.00
9875;DHT22;4976;46.786;7.632;2023-02-12T14:39:40;8.30;1.00
9875;DHT22;4976;46.786;7.632;2023-02-12T14:42:41;8.30;1.00
9875;DHT22;4976;46.786;7.632;2023-02-12T14:45:30;8.40;1.00
9875;DHT22;4976;46.786;7.632;2023-02-12T14:48:03;8.40;1.00
9875;DHT22;4976;46.786;7.632;2023-02-12T14:50:38;8.40;1.00
9875;DHT22;4976;46.786;7.632;2023-02-12T14:53:31;8.40;1.00
9875;DHT22;4976;46.786;7.632;2023-02-12T14:56:02;8.40;1.00
9875;DHT22;4976;46.786;7.632;2023-02-12T14:58:31;8.30;1.00
9875;DHT22;4976;46.786;7.632;2023-02-12T15:01:00;8.20;1.00
9875;DHT22;4976;46.786;7.632;2023-02-12T15:03:39;8.10;1.00
9875;DHT22;4976;46.786;7.632;2023-02-12T15:06:13;8.00;1.00
9875;DHT22;4976;46.786;7.632;2023-02-12T15:08:52;8.10;1.00
9875;DHT22;4976;46.786;7.632;2023-02-12T15:11:40;8.10;1.00
9875;DHT22;4976;46.786;7.632;2023-02-12T15:14:15;8.00;1.00
9875;DHT22;4976;46.786;7.632;2023-02-12T15:16:51;7.90;1.00
9875;DHT22;4976;46.786;7.632;2023-02-12T15:19:38;7.80;1.00
9875;DHT22;4976;46.786;7.632;2023-02-12T15:22:21;7.80;1.00
9875;DHT22;4976;46.786;7.632;2023-02-12T15:24:54;7.80;1.00
9875;DHT22;4976;46.786;7.632;2023-02-12T15:27:43;7.80;1.00
9875;DHT22;4976;46.786;7.632;2023-02-12T15:30:29;7.90;1.00
9875;DHT22;4976;46.786;7.632;2023-02-12T15:33:05;7.90;1.00
